パゴパゴ の空港の天気 - METARとTAF

パゴパゴ国際空港 ( NSTU / PPG ) - アメリカ領サモア パゴパゴ
飛行場実況気象(Metar)
観測時間10/17 12:50 SST (10/17 23:50 UTC)
風向・風速東南東 7m/s
視程10km以上
天気現象
全天の4割程度の雲 雲底高度 520m
全天の8割程度の雲 雲底高度 1130m
全天の8割程度の雲 雲底高度 3050m
気温29.5℃
湿度79%
気圧1012.4hPa
METARNSTU 172350Z 11013KT 10SM SCT017 BKN037 BKN100 30/26 A2989 RMK SHRAE22 SLP124 60047 8/420 T02950255 10297 20261 56017
過去の天気等 Google飛行場航空写真 Wunderground天気予報

過去48時間のMETAR

飛行場予報(TAF)
発表時間: 10/17 12:41 SST (10/17 23:41 UTC)
予報対象時間: 17日13時 SST ~ 18日13時 SST
風向・風速東 7m/s
視程10km以上
天気現象周辺でしゅう雨
少しの雲 雲底高度 610m
全天の4割程度の雲 雲底高度 1220m
全天の8割程度の雲 雲底高度 3050m
17日12時 SST ~ 17日14時 SST に一時的に
風向・風速東南東 9m/s
視程8050m
天気現象しゅう雨
全天の4割程度の雲 雲底高度 460m
全天の8割程度の雲 雲底高度 1070m
NSTU 172341Z 1800/1824 10014KT P6SM VCSH FEW020 SCT040 BKN100
TEMPO 1723/1801 12018KT 5SM SHRA SCT015 BKN035